Friday, February 24, 2017, 12:05 PM EST

KPOU, Poughkeepsie Dutchess Cty

Location: Wappingers Falls, NY, United States Lat: 41.633
Local Time: 12:05 PM EST (17:05 GMT) Lon: -73.883
Time Zone: US/Eastern Elev: 167 ft

Show me the last for .
Show Decoded

2017-02-24 11:53 METAR KPOU 241653Z 17007KT 10SM BKN100 21/11 A2987 RMK AO2 SLP111 T02060111 =
2017-02-24 10:53 METAR KPOU 241553Z 18006KT 10SM CLR 18/11 A2989 RMK AO2 SLP119 T01780111 =
2017-02-24 09:53 METAR KPOU 241453Z 24003KT 10SM OVC110 14/11 A2992 RMK AO2 SLP128 T01440106
                 51007 =
2017-02-24 08:53 METAR KPOU 241353Z 18006KT 10SM OVC110 14/11 A2991 RMK AO2 SLP126 T01390106 =
2017-02-24 07:53 METAR KPOU 241253Z 00000KT 6SM BR CLR 09/09 A2991 RMK AO2 SLP124 T00890089 =
2017-02-24 06:53 METAR KPOU 241153Z 00000KT 8SM FEW100 07/07 A2990 RMK AO2 SLP121 70001 T00670067
                 10100 20067 51001 =
2017-02-24 06:41 METAR KPOU 241141Z 26003KT 1 3/4SM BR CLR 07/07 A2990 RMK AO2 T00720072 =
2017-02-24 06:14 METAR KPOU 241114Z 00000KT 4SM BR CLR 08/08 A2989 RMK AO2 T00780078 =
2017-02-24 06:06 METAR KPOU 241106Z 00000KT 2SM BR CLR 08/08 A2990 =
2017-02-24 05:53 METAR KPOU 241053Z 00000KT 1/2SM FG CLR 08/08 A2990 RMK AO2 SLP121 T00780078 =
2017-02-24 05:51 METAR KPOU 241051Z 00000KT 1/4SM FG CLR 08/07 A2990 RMK AO2 =
2017-02-24 05:44 METAR KPOU 241044Z 00000KT 1/2SM FG CLR 07/07 A2990 RMK AO2 T00720072 =
2017-02-24 05:25 METAR KPOU 241025Z 00000KT 1SM BR FEW110 08/08 A2990 RMK AO2 T00780078 =
2017-02-24 05:17 METAR KPOU 241017Z 00000KT 1/4SM FG SCT110 08/08 A2989 =
2017-02-24 05:09 METAR KPOU 241009Z 00000KT 1 1/4SM BR BKN110 08/08 A2989 RMK AO2 T00780078 =
2017-02-24 04:53 METAR KPOU 240953Z 00000KT 2 1/2SM BR BKN110 09/08 A2989 RMK AO2 SLP120
                 T00890083 =
2017-02-24 04:40 METAR KPOU 240940Z 00000KT 1 1/2SM BR FEW080 BKN110 08/08 A2990 =
2017-02-24 03:58 METAR KPOU 240858Z 00000KT 3SM BR BKN100 08/08 A2988 RMK AO2 T00830083 =
2017-02-24 03:53 METAR KPOU 240853Z 12003KT 1 1/4SM BR BKN100 09/08 A2988 RMK AO2 SLP115
                 T00890083 53003 =
2017-02-24 03:51 METAR KPOU 240851Z 00000KT 1 1/4SM BR BKN100 09/08 A2988 RMK AO2 =
2017-02-24 03:16 METAR KPOU 240816Z 00000KT 1/2SM FG OVC100 08/08 A2987 =
2017-02-24 02:53 METAR KPOU 240753Z 00000KT 1 3/4SM BR BKN110 09/09 A2986 RMK AO2 SLP109
                 T00890089 =
2017-02-24 01:53 METAR KPOU 240653Z 00000KT 4SM BR SCT085 OVC110 09/09 A2987 RMK AO2 SLP111
                 T00940094 =
2017-02-24 00:53 METAR KPOU 240553Z 00000KT 7SM BKN070 BKN090 OVC120 11/10 A2987 RMK AO2 RAE27
                 SLP110 P0001 60001 T01060100 10156 20094 50004 =
2017-02-23 23:53 METAR KPOU 240453Z 00000KT 9SM -RA FEW041 BKN055 OVC110 10/09 A2987 RMK AO2
                 RAB05E16B53 SLP113 P0000 T01000089 402000000 =
2017-02-23 23:11 METAR KPOU 240411Z 14005KT 9SM -RA OVC049 11/09 A2988 RMK AO2 RAB05 P0000
                 T01060089 =
2017-02-23 22:53 METAR KPOU 240353Z VRB03KT 10SM VCTS OVC048 10/08 A2988 RMK AO2 SLP114 T01000078
                 =
2017-02-23 21:53 METAR KPOU 240253Z 00000KT 10SM SCT050 09/08 A2985 RMK AO2 SLP106 T00940078
                 51013 =
2017-02-23 20:53 METAR KPOU 240153Z 00000KT 10SM FEW060 11/08 A2985 RMK AO2 SLP104 T01060078 =
2017-02-23 19:53 METAR KPOU 240053Z 00000KT 10SM FEW060 12/08 A2983 RMK AO2 SLP099 T01170083 =
2017-02-23 18:53 METAR KPOU 232353Z 16003KT 10SM BKN060 16/09 A2982 RMK AO2 SLP094 T01560094
                 10200 20156 51028 =
2017-02-23 17:53 METAR KPOU 232253Z 17005KT 10SM BKN065 18/10 A2980 RMK AO2 SLP087 T01830100 =
2017-02-23 16:53 METAR KPOU 232153Z 20007KT 10SM FEW040 19/09 A2976 RMK AO2 SLP075 T01890094 =
2017-02-23 15:53 METAR KPOU 232053Z AUTO 16008KT 10SM CLR 19/09 A2973 RMK AO2 SLP065 T01940094
                 56011 =
2017-02-23 14:53 METAR KPOU 231953Z 19006KT 10SM CLR 20/09 A2974 RMK AO2 SLP066 T02000089 =
2017-02-23 13:53 METAR KPOU 231853Z 15008KT 10SM CLR 19/08 A2974 RMK AO2 SLP067 T01940083 =
2017-02-23 12:53 METAR KPOU 231753Z 15007KT 10SM CLR 18/08 A2977 RMK AO2 SLP077 T01830083 10183
                 20000 58028 =

Support USWX by starting your Amazon purchase here.